sensor_id;sensor_type;location;lat;lon;timestamp;pressure;altitude;pressure_sealevel;temperature;humidity
85936;BME280;76481;54.346;10.210;2024-03-08T00:00:08;102393.78;;;0.64;88.87
85936;BME280;76481;54.346;10.210;2024-03-08T00:02:43;102385.25;;;0.57;88.46
85936;BME280;76481;54.346;10.210;2024-03-08T00:05:09;102398.88;;;0.62;89.25
85936;BME280;76481;54.346;10.210;2024-03-08T00:07:38;102391.13;;;0.56;88.51
85936;BME280;76481;54.346;10.210;2024-03-08T00:10:05;102397.25;;;0.49;88.81
85936;BME280;76481;54.346;10.210;2024-03-08T00:12:31;102392.38;;;0.46;89.12
85936;BME280;76481;54.346;10.210;2024-03-08T00:14:57;102391.22;;;0.35;89.64
85936;BME280;76481;54.346;10.210;2024-03-08T00:17:23;102391.22;;;0.35;88.71
85936;BME280;76481;54.346;10.210;2024-03-08T00:19:49;102399.28;;;0.28;89.83
85936;BME280;76481;54.346;10.210;2024-03-08T00:22:15;102384.47;;;0.24;89.53
85936;BME280;76481;54.346;10.210;2024-03-08T00:24:41;102387.59;;;0.23;88.77
85936;BME280;76481;54.346;10.210;2024-03-08T00:27:07;102392.91;;;0.16;90.38
85936;BME280;76481;54.346;10.210;2024-03-08T00:29:34;102391.84;;;0.08;89.39
85936;BME280;76481;54.346;10.210;2024-03-08T00:32:00;102397.72;;;0.07;89.49
85936;BME280;76481;54.346;10.210;2024-03-08T00:34:26;102383.94;;;-0.02;89.85
85936;BME280;76481;54.346;10.210;2024-03-08T00:36:52;102386.72;;;-0.02;90.87
85936;BME280;76481;54.346;10.210;2024-03-08T00:39:18;102383.81;;;-0.06;90.57
85936;BME280;76481;54.346;10.210;2024-03-08T00:41:45;102380.94;;;-0.09;89.84
85936;BME280;76481;54.346;10.210;2024-03-08T00:44:11;102383.41;;;-0.16;89.78
85936;BME280;76481;54.346;10.210;2024-03-08T00:46:36;102399.13;;;-0.20;90.49
85936;BME280;76481;54.346;10.210;2024-03-08T00:49:01;102388.72;;;-0.23;91.31
85936;BME280;76481;54.346;10.210;2024-03-08T00:51:27;102383.84;;;-0.26;90.54
85936;BME280;76481;54.346;10.210;2024-03-08T00:53:52;102378.97;;;-0.29;91.15
85936;BME280;76481;54.346;10.210;2024-03-08T00:56:18;102388.44;;;-0.30;91.53
85936;BME280;76481;54.346;10.210;2024-03-08T00:58:44;102378.06;;;-0.33;91.84
85936;BME280;76481;54.346;10.210;2024-03-08T01:01:09;102371.69;;;-0.34;91.56
85936;BME280;76481;54.346;10.210;2024-03-08T01:03:36;102376.56;;;-0.31;92.27
85936;BME280;76481;54.346;10.210;2024-03-08T01:06:01;102376.56;;;-0.31;91.80
85936;BME280;76481;54.346;10.210;2024-03-08T01:08:27;102363.84;;;-0.32;93.09
85936;BME280;76481;54.346;10.210;2024-03-08T01:10:53;102368.72;;;-0.29;91.74
85936;BME280;76481;54.346;10.210;2024-03-08T01:13:19;102355.34;;;-0.27;92.21
85936;BME280;76481;54.346;10.210;2024-03-08T01:15:45;102362.59;;;-0.22;91.09
85936;BME280;76481;54.346;10.210;2024-03-08T01:18:11;102351.06;;;-0.24;91.88
85936;BME280;76481;54.346;10.210;2024-03-08T01:20:36;102349.22;;;-0.20;92.79
85936;BME280;76481;54.346;10.210;2024-03-08T01:23:02;102347.28;;;-0.20;92.17
85936;BME280;76481;54.346;10.210;2024-03-08T01:25:28;102343.69;;;-0.20;91.28
85936;BME280;76481;54.346;10.210;2024-03-08T01:27:54;102347.47;;;-0.25;91.95
85936;BME280;76481;54.346;10.210;2024-03-08T01:30:19;102333.84;;;-0.30;92.10
85936;BME280;76481;54.346;10.210;2024-03-08T01:32:45;102334.88;;;-0.34;92.71
85936;BME280;76481;54.346;10.210;2024-03-08T01:35:10;102335.31;;;-0.32;92.93
85936;BME280;76481;54.346;10.210;2024-03-08T01:37:36;102327.69;;;-0.35;92.87
85936;BME280;76481;54.346;10.210;2024-03-08T01:40:02;102319.03;;;-0.34;93.53
85936;BME280;76481;54.346;10.210;2024-03-08T01:42:28;102322.78;;;-0.30;94.09
85936;BME280;76481;54.346;10.210;2024-03-08T01:44:54;102309.94;;;-0.34;93.24
85936;BME280;76481;54.346;10.210;2024-03-08T01:47:21;102314.81;;;-0.31;94.06
85936;BME280;76481;54.346;10.210;2024-03-08T01:49:50;102311.56;;;-0.33;92.52
85936;BME280;76481;54.346;10.210;2024-03-08T01:52:17;102317.22;;;-0.30;93.44
85936;BME280;76481;54.346;10.210;2024-03-08T01:54:46;102309.59;;;-0.33;94.16
85936;BME280;76481;54.346;10.210;2024-03-08T01:57:12;102295.50;;;-0.28;94.72
85936;BME280;76481;54.346;10.210;2024-03-08T01:59:39;102301.41;;;-0.29;94.21
85936;BME280;76481;54.346;10.210;2024-03-08T02:02:06;102304.16;;;-0.29;93.94
85936;BME280;76481;54.346;10.210;2024-03-08T02:04:34;102293.31;;;-0.34;94.00
85936;BME280;76481;54.346;10.210;2024-03-08T02:06:59;102292.63;;;-0.31;94.29
85936;BME280;76481;54.346;10.210;2024-03-08T02:09:25;102304.84;;;-0.32;94.51
85936;BME280;76481;54.346;10.210;2024-03-08T02:11:51;102291.69;;;-0.35;94.54
85936;BME280;76481;54.346;10.210;2024-03-08T02:14:17;102281.88;;;-0.33;94.43
85936;BME280;76481;54.346;10.210;2024-03-08T02:16:44;102294.94;;;-0.33;94.06
85936;BME280;76481;54.346;10.210;2024-03-08T02:19:09;102289.19;;;-0.28;93.48
85936;BME280;76481;54.346;10.210;2024-03-08T02:21:35;102277.41;;;-0.25;94.52
85936;BME280;76481;54.346;10.210;2024-03-08T02:24:01;102279.84;;;-0.24;94.61
85936;BME280;76481;54.346;10.210;2024-03-08T02:26:27;102271.63;;;-0.20;95.62
85936;BME280;76481;54.346;10.210;2024-03-08T02:28:52;102273.97;;;-0.10;95.56
85936;BME280;76481;54.346;10.210;2024-03-08T02:31:18;102264.03;;;-0.11;95.29
85936;BME280;76481;54.346;10.210;2024-03-08T02:33:43;102269.38;;;-0.06;95.11
85936;BME280;76481;54.346;10.210;2024-03-08T02:36:09;102260.59;;;0.04;94.40
85936;BME280;76481;54.346;10.210;2024-03-08T02:38:34;102267.88;;;0.09;94.25
85936;BME280;76481;54.346;10.210;2024-03-08T02:41:00;102247.19;;;0.06;94.72
85936;BME280;76481;54.346;10.210;2024-03-08T02:43:25;102248.91;;;0.11;95.66
85936;BME280;76481;54.346;10.210;2024-03-08T02:45:51;102259.66;;;0.12;94.21
85936;BME280;76481;54.346;10.210;2024-03-08T02:48:18;102245.94;;;0.16;95.84
85936;BME280;76481;54.346;10.210;2024-03-08T02:50:44;102253.22;;;0.20;95.34
85936;BME280;76481;54.346;10.210;2024-03-08T02:53:09;102253.31;;;0.24;95.05
85936;BME280;76481;54.346;10.210;2024-03-08T02:55:39;102246.38;;;0.30;95.46
85936;BME280;76481;54.346;10.210;2024-03-08T02:58:06;102254.13;;;0.36;94.93
85936;BME280;76481;54.346;10.210;2024-03-08T03:00:35;102248.09;;;0.46;96.10
85936;BME280;76481;54.346;10.210;2024-03-08T03:03:01;102251.78;;;0.50;95.00
85936;BME280;76481;54.346;10.210;2024-03-08T03:05:29;102242.06;;;0.56;94.63
85936;BME280;76481;54.346;10.210;2024-03-08T03:07:57;102238.84;;;0.66;94.64
85936;BME280;76481;54.346;10.210;2024-03-08T03:10:23;102242.97;;;0.72;94.74
85936;BME280;76481;54.346;10.210;2024-03-08T03:12:49;102237.41;;;0.72;94.55
85936;BME280;76481;54.346;10.210;2024-03-08T03:15:14;102242.50;;;0.82;94.96
85936;BME280;76481;54.346;10.210;2024-03-08T03:17:46;102239.13;;;0.89;94.47
85936;BME280;76481;54.346;10.210;2024-03-08T03:20:13;102245.16;;;0.91;94.60
85936;BME280;76481;54.346;10.210;2024-03-08T03:22:39;102242.38;;;0.91;94.43
85936;BME280;76481;54.346;10.210;2024-03-08T03:25:07;102249.88;;;0.90;94.29
85936;BME280;76481;54.346;10.210;2024-03-08T03:27:33;102246.66;;;0.88;95.06
85936;BME280;76481;54.346;10.210;2024-03-08T03:29:58;102245.34;;;0.98;94.52
85936;BME280;76481;54.346;10.210;2024-03-08T03:32:44;102243.94;;;1.04;94.15
85936;BME280;76481;54.346;10.210;2024-03-08T03:35:13;102246.38;;;1.05;93.97
85936;BME280;76481;54.346;10.210;2024-03-08T03:37:40;102232.72;;;1.00;93.78
85936;BME280;76481;54.346;10.210;2024-03-08T03:40:08;102243.59;;;1.05;95.27
85936;BME280;76481;54.346;10.210;2024-03-08T03:42:34;102235.97;;;1.02;95.28
85936;BME280;76481;54.346;10.210;2024-03-08T03:44:59;102233.91;;;0.99;94.25
85936;BME280;76481;54.346;10.210;2024-03-08T03:47:25;102239.22;;;1.04;93.97
85936;BME280;76481;54.346;10.210;2024-03-08T03:49:52;102234.00;;;1.03;95.21
85936;BME280;76481;54.346;10.210;2024-03-08T03:52:19;102225.75;;;1.06;93.90
85936;BME280;76481;54.346;10.210;2024-03-08T03:54:44;102225.41;;;1.08;94.77
85936;BME280;76481;54.346;10.210;2024-03-08T03:57:10;102232.25;;;1.10;94.37
85936;BME280;76481;54.346;10.210;2024-03-08T03:59:37;102236.44;;;1.04;93.83
85936;BME280;76481;54.346;10.210;2024-03-08T04:02:03;102230.81;;;1.16;94.45
85936;BME280;76481;54.346;10.210;2024-03-08T04:04:29;102216.50;;;1.14;94.39
85936;BME280;76481;54.346;10.210;2024-03-08T04:06:54;102230.63;;;1.09;94.52
85936;BME280;76481;54.346;10.210;2024-03-08T04:09:20;102216.03;;;1.12;94.74
85936;BME280;76481;54.346;10.210;2024-03-08T04:11:48;102220.41;;;1.13;94.93
85936;BME280;76481;54.346;10.210;2024-03-08T04:14:13;102207.88;;;1.19;93.94
85936;BME280;76481;54.346;10.210;2024-03-08T04:16:39;102208.59;;;1.16;93.50
85936;BME280;76481;54.346;10.210;2024-03-08T04:19:04;102208.91;;;1.27;93.79
85936;BME280;76481;54.346;10.210;2024-03-08T04:21:30;102216.09;;;1.28;93.22
85936;BME280;76481;54.346;10.210;2024-03-08T04:23:55;102219.09;;;1.23;94.15
85936;BME280;76481;54.346;10.210;2024-03-08T04:26:21;102214.38;;;1.23;93.44
85936;BME280;76481;54.346;10.210;2024-03-08T04:28:47;102212.84;;;1.26;94.79
85936;BME280;76481;54.346;10.210;2024-03-08T04:31:12;102213.38;;;1.31;94.60
85936;BME280;76481;54.346;10.210;2024-03-08T04:33:38;102209.91;;;1.34;94.28
85936;BME280;76481;54.346;10.210;2024-03-08T04:36:04;102204.81;;;1.36;93.34
85936;BME280;76481;54.346;10.210;2024-03-08T04:38:30;102214.56;;;1.30;94.19
85936;BME280;76481;54.346;10.210;2024-03-08T04:40:57;102208.47;;;1.25;94.05
85936;BME280;76481;54.346;10.210;2024-03-08T04:43:23;102198.72;;;1.31;93.89
85936;BME280;76481;54.346;10.210;2024-03-08T04:45:52;102215.56;;;1.38;93.41
85936;BME280;76481;54.346;10.210;2024-03-08T04:48:17;102202.38;;;1.35;93.32
85936;BME280;76481;54.346;10.210;2024-03-08T04:50:43;102203.19;;;1.35;94.30
85936;BME280;76481;54.346;10.210;2024-03-08T04:53:10;102198.78;;;1.34;94.08
85936;BME280;76481;54.346;10.210;2024-03-08T04:55:35;102196.47;;;1.36;93.38
85936;BME280;76481;54.346;10.210;2024-03-08T04:58:02;102207.66;;;1.40;93.95
85936;BME280;76481;54.346;10.210;2024-03-08T05:00:29;102195.06;;;1.42;93.35
85936;BME280;76481;54.346;10.210;2024-03-08T05:02:54;102194.59;;;1.40;93.23
85936;BME280;76481;54.346;10.210;2024-03-08T05:05:20;102200.97;;;1.41;93.51
85936;BME280;76481;54.346;10.210;2024-03-08T05:07:45;102200.50;;;1.39;92.75
85936;BME280;76481;54.346;10.210;2024-03-08T05:10:11;102190.28;;;1.43;92.63
85936;BME280;76481;54.346;10.210;2024-03-08T05:12:37;102192.16;;;1.39;93.39
85936;BME280;76481;54.346;10.210;2024-03-08T05:15:05;102185.53;;;1.43;93.25
85936;BME280;76481;54.346;10.210;2024-03-08T05:17:30;102189.84;;;1.41;92.83
85936;BME280;76481;54.346;10.210;2024-03-08T05:19:56;102188.56;;;1.38;92.36
85936;BME280;76481;54.346;10.210;2024-03-08T05:22:22;102188.56;;;1.38;92.52
85936;BME280;76481;54.346;10.210;2024-03-08T05:24:47;102184.53;;;1.36;92.39
85936;BME280;76481;54.346;10.210;2024-03-08T05:27:13;102188.69;;;1.42;93.42
85936;BME280;76481;54.346;10.210;2024-03-08T05:29:38;102182.41;;;1.45;93.07
85936;BME280;76481;54.346;10.210;2024-03-08T05:32:04;102177.66;;;1.45;92.85
85936;BME280;76481;54.346;10.210;2024-03-08T05:34:30;102184.13;;;1.49;93.40
85936;BME280;76481;54.346;10.210;2024-03-08T05:36:55;102177.75;;;1.49;93.51
85936;BME280;76481;54.346;10.210;2024-03-08T05:39:21;102183.41;;;1.52;92.67
85936;BME280;76481;54.346;10.210;2024-03-08T05:41:49;102174.97;;;1.49;92.69
85936;BME280;76481;54.346;10.210;2024-03-08T05:44:16;102180.44;;;1.45;93.55
85936;BME280;76481;54.346;10.210;2024-03-08T05:46:44;102174.63;;;1.50;93.22
85936;BME280;76481;54.346;10.210;2024-03-08T05:49:11;102177.50;;;1.54;92.36
85936;BME280;76481;54.346;10.210;2024-03-08T05:51:38;102187.53;;;1.58;92.05
85936;BME280;76481;54.346;10.210;2024-03-08T05:54:08;102175.34;;;1.63;92.52
85936;BME280;76481;54.346;10.210;2024-03-08T05:56:35;102178.50;;;1.61;91.98
85936;BME280;76481;54.346;10.210;2024-03-08T05:59:01;102173.28;;;1.60;93.06
85936;BME280;76481;54.346;10.210;2024-03-08T06:01:27;102183.34;;;1.64;92.76
85936;BME280;76481;54.346;10.210;2024-03-08T06:03:54;102174.28;;;1.67;92.89
85936;BME280;76481;54.346;10.210;2024-03-08T06:06:21;102179.84;;;1.67;92.52
85936;BME280;76481;54.346;10.210;2024-03-08T06:08:48;102170.22;;;1.65;92.07
85936;BME280;76481;54.346;10.210;2024-03-08T06:11:15;102167.19;;;1.70;92.41
85936;BME280;76481;54.346;10.210;2024-03-08T06:13:40;102172.50;;;1.75;91.81
85936;BME280;76481;54.346;10.210;2024-03-08T06:16:06;102160.09;;;1.72;92.13
85936;BME280;76481;54.346;10.210;2024-03-08T06:18:36;102160.66;;;1.78;91.68
85936;BME280;76481;54.346;10.210;2024-03-08T06:21:05;102165.47;;;1.81;91.76
85936;BME280;76481;54.346;10.210;2024-03-08T06:23:34;102167.47;;;1.80;92.01
85936;BME280;76481;54.346;10.210;2024-03-08T06:26:04;102164.41;;;1.85;91.93
85936;BME280;76481;54.346;10.210;2024-03-08T06:28:30;102161.34;;;1.90;90.97
85936;BME280;76481;54.346;10.210;2024-03-08T06:30:55;102170.16;;;1.92;90.96
85936;BME280;76481;54.346;10.210;2024-03-08T06:33:21;102162.97;;;1.91;91.13
85936;BME280;76481;54.346;10.210;2024-03-08T06:35:46;102160.63;;;1.93;90.88
85936;BME280;76481;54.346;10.210;2024-03-08T06:38:12;102170.16;;;1.92;90.50
85936;BME280;76481;54.346;10.210;2024-03-08T06:40:37;102167.38;;;1.92;91.09
85936;BME280;76481;54.346;10.210;2024-03-08T06:43:03;102161.81;;;1.92;90.33
85936;BME280;76481;54.346;10.210;2024-03-08T06:45:33;102163.69;;;1.88;91.07
85936;BME280;76481;54.346;10.210;2024-03-08T06:47:59;102163.69;;;1.88;90.82
85936;BME280;76481;54.346;10.210;2024-03-08T06:50:25;102163.63;;;1.85;90.50
85936;BME280;76481;54.346;10.210;2024-03-08T06:52:50;102161.25;;;1.87;91.77
85936;BME280;76481;54.346;10.210;2024-03-08T06:55:19;102161.81;;;1.92;90.50
85936;BME280;76481;54.346;10.210;2024-03-08T06:57:45;102156.69;;;1.94;90.71
85936;BME280;76481;54.346;10.210;2024-03-08T07:00:11;102157.97;;;1.97;91.37
85936;BME280;76481;54.346;10.210;2024-03-08T07:02:40;102163.16;;;1.98;90.28
85936;BME280;76481;54.346;10.210;2024-03-08T07:05:07;102155.25;;;2.00;91.18
85936;BME280;76481;54.346;10.210;2024-03-08T07:07:35;102160.81;;;2.00;90.35
85936;BME280;76481;54.346;10.210;2024-03-08T07:10:01;102158.03;;;2.00;90.25
85936;BME280;76481;54.346;10.210;2024-03-08T07:12:26;102163.50;;;2.12;90.30
85936;BME280;76481;54.346;10.210;2024-03-08T07:14:52;102163.50;;;2.12;90.23
85936;BME280;76481;54.346;10.210;2024-03-08T07:17:18;102161.16;;;2.14;90.47
85936;BME280;76481;54.346;10.210;2024-03-08T07:19:44;102154.94;;;2.21;90.46
85936;BME280;76481;54.346;10.210;2024-03-08T07:22:10;102146.53;;;2.17;89.37
85936;BME280;76481;54.346;10.210;2024-03-08T07:24:36;102152.97;;;2.22;90.00
85936;BME280;76481;54.346;10.210;2024-03-08T07:27:03;102159.16;;;2.31;90.13
85936;BME280;76481;54.346;10.210;2024-03-08T07:29:30;102155.19;;;2.32;89.51
85936;BME280;76481;54.346;10.210;2024-03-08T07:31:55;102152.50;;;2.35;89.08
85936;BME280;76481;54.346;10.210;2024-03-08T07:34:39;102147.16;;;2.46;89.56
85936;BME280;76481;54.346;10.210;2024-03-08T07:37:06;102149.81;;;2.58;89.15
85936;BME280;76481;54.346;10.210;2024-03-08T07:39:37;102140.59;;;2.73;88.90
85936;BME280;76481;54.346;10.210;2024-03-08T07:42:03;102140.53;;;2.88;88.53
85936;BME280;76481;54.346;10.210;2024-03-08T07:44:28;102142.19;;;2.93;87.79
85936;BME280;76481;54.346;10.210;2024-03-08T07:46:54;102141.19;;;3.01;87.59
85936;BME280;76481;54.346;10.210;2024-03-08T07:49:20;102145.00;;;3.12;86.43
85936;BME280;76481;54.346;10.210;2024-03-08T07:51:46;102139.56;;;3.00;86.55
85936;BME280;76481;54.346;10.210;2024-03-08T07:54:11;102147.47;;;2.98;86.75
85936;BME280;76481;54.346;10.210;2024-03-08T07:56:36;102132.97;;;2.89;87.11
85936;BME280;76481;54.346;10.210;2024-03-08T07:59:02;102141.41;;;2.73;86.01
85936;BME280;76481;54.346;10.210;2024-03-08T08:01:29;102142.34;;;2.62;86.27
85936;BME280;76481;54.346;10.210;2024-03-08T08:03:56;102141.78;;;2.72;86.81
85936;BME280;76481;54.346;10.210;2024-03-08T08:06:22;102136.06;;;2.84;86.55
85936;BME280;76481;54.346;10.210;2024-03-08T08:08:47;102130.47;;;3.03;86.16
85936;BME280;76481;54.346;10.210;2024-03-08T08:11:13;102132.94;;;3.08;85.78
85936;BME280;76481;54.346;10.210;2024-03-08T08:13:41;102133.63;;;3.01;85.46
85936;BME280;76481;54.346;10.210;2024-03-08T08:16:09;102134.19;;;2.91;85.55
85936;BME280;76481;54.346;10.210;2024-03-08T08:18:36;102134.75;;;2.78;85.50
85936;BME280;76481;54.346;10.210;2024-03-08T08:21:05;102137.22;;;2.83;85.67
85936;BME280;76481;54.346;10.210;2024-03-08T08:23:32;102144.69;;;2.98;85.96
85936;BME280;76481;54.346;10.210;2024-03-08T08:25:57;102138.16;;;3.51;85.29
85936;BME280;76481;54.346;10.210;2024-03-08T08:28:23;102143.66;;;3.92;83.88
85936;BME280;76481;54.346;10.210;2024-03-08T08:30:50;102146.28;;;4.08;81.63
85936;BME280;76481;54.346;10.210;2024-03-08T08:33:16;102153.47;;;3.83;81.76
85936;BME280;76481;54.346;10.210;2024-03-08T08:35:41;102137.97;;;3.63;81.80
85936;BME280;76481;54.346;10.210;2024-03-08T08:38:08;102140.88;;;3.47;82.72
85936;BME280;76481;54.346;10.210;2024-03-08T08:40:34;102138.69;;;3.37;83.46
85936;BME280;76481;54.346;10.210;2024-03-08T08:43:01;102136.22;;;3.55;83.33
85936;BME280;76481;54.346;10.210;2024-03-08T08:45:30;102139.56;;;3.64;82.15
85936;BME280;76481;54.346;10.210;2024-03-08T08:47:55;102139.22;;;3.65;81.28
85936;BME280;76481;54.346;10.210;2024-03-08T08:50:21;102145.56;;;3.88;81.53
85936;BME280;76481;54.346;10.210;2024-03-08T08:52:50;102133.63;;;4.14;81.54
85936;BME280;76481;54.346;10.210;2024-03-08T08:55:15;102130.91;;;4.17;79.27
85936;BME280;76481;54.346;10.210;2024-03-08T08:57:46;102129.09;;;4.06;79.76
85936;BME280;76481;54.346;10.210;2024-03-08T09:00:13;102122.56;;;3.95;80.45
85936;BME280;76481;54.346;10.210;2024-03-08T09:02:41;102128.97;;;3.73;80.47
85936;BME280;76481;54.346;10.210;2024-03-08T09:05:07;102125.03;;;3.51;82.31
85936;BME280;76481;54.346;10.210;2024-03-08T09:07:36;102128.31;;;3.57;81.52
85936;BME280;76481;54.346;10.210;2024-03-08T09:10:03;102120.34;;;3.59;81.91
85936;BME280;76481;54.346;10.210;2024-03-08T09:12:29;102116.97;;;3.69;81.44
85936;BME280;76481;54.346;10.210;2024-03-08T09:14:54;102116.75;;;3.81;81.30
85936;BME280;76481;54.346;10.210;2024-03-08T09:17:20;102109.56;;;3.80;80.30
85936;BME280;76481;54.346;10.210;2024-03-08T09:19:49;102115.50;;;4.01;81.30
85936;BME280;76481;54.346;10.210;2024-03-08T09:22:15;102092.69;;;4.84;79.82
85936;BME280;76481;54.346;10.210;2024-03-08T09:24:41;102089.31;;;5.81;74.88
85936;BME280;76481;54.346;10.210;2024-03-08T09:27:08;102099.97;;;6.16;72.40
85936;BME280;76481;54.346;10.210;2024-03-08T09:29:35;102097.34;;;6.47;69.97
85936;BME280;76481;54.346;10.210;2024-03-08T09:32:01;102087.13;;;6.94;70.29
85936;BME280;76481;54.346;10.210;2024-03-08T09:34:26;102089.66;;;7.48;67.58
85936;BME280;76481;54.346;10.210;2024-03-08T09:36:52;102086.81;;;7.23;67.21
85936;BME280;76481;54.346;10.210;2024-03-08T09:39:19;102089.50;;;6.85;68.28
85936;BME280;76481;54.346;10.210;2024-03-08T09:41:46;102077.56;;;7.09;69.24
85936;BME280;76481;54.346;10.210;2024-03-08T09:44:18;102076.81;;;7.40;66.78
85936;BME280;76481;54.346;10.210;2024-03-08T09:46:47;102079.66;;;7.75;65.91
85936;BME280;76481;54.346;10.210;2024-03-08T09:49:13;102075.22;;;8.23;63.57
85936;BME280;76481;54.346;10.210;2024-03-08T09:51:41;102062.31;;;8.43;63.24
85936;BME280;76481;54.346;10.210;2024-03-08T09:54:07;102063.75;;;8.86;61.22
85936;BME280;76481;54.346;10.210;2024-03-08T09:56:35;102054.16;;;9.38;60.64
85936;BME280;76481;54.346;10.210;2024-03-08T09:59:00;102059.78;;;8.70;60.43
85936;BME280;76481;54.346;10.210;2024-03-08T10:01:45;102047.09;;;8.33;61.49
85936;BME280;76481;54.346;10.210;2024-03-08T10:04:11;102051.72;;;8.75;61.80
85936;BME280;76481;54.346;10.210;2024-03-08T10:06:37;102034.31;;;9.01;59.79
85936;BME280;76481;54.346;10.210;2024-03-08T10:09:02;102038.63;;;9.16;59.92
85936;BME280;76481;54.346;10.210;2024-03-08T10:11:28;102035.28;;;9.86;58.08
85936;BME280;76481;54.346;10.210;2024-03-08T10:13:54;102030.81;;;10.29;56.96
85936;BME280;76481;54.346;10.210;2024-03-08T10:16:20;102018.22;;;10.37;53.20
85936;BME280;76481;54.346;10.210;2024-03-08T10:18:46;102034.69;;;10.02;53.80
85936;BME280;76481;54.346;10.210;2024-03-08T10:21:11;102034.03;;;9.87;54.44
85936;BME280;76481;54.346;10.210;2024-03-08T10:23:39;102021.69;;;9.74;55.21
85936;BME280;76481;54.346;10.210;2024-03-08T10:26:17;102016.50;;;9.69;54.79
85936;BME280;76481;54.346;10.210;2024-03-08T10:28:47;102017.78;;;10.05;53.78
85936;BME280;76481;54.346;10.210;2024-03-08T10:31:14;102016.88;;;10.15;52.92
85936;BME280;76481;54.346;10.210;2024-03-08T10:33:43;102008.50;;;10.45;52.94
85936;BME280;76481;54.346;10.210;2024-03-08T10:36:10;102000.88;;;10.73;52.63
85936;BME280;76481;54.346;10.210;2024-03-08T10:38:41;101998.75;;;10.80;52.94
85936;BME280;76481;54.346;10.210;2024-03-08T10:41:16;101993.91;;;10.81;52.54
85936;BME280;76481;54.346;10.210;2024-03-08T10:44:19;101999.25;;;10.04;53.01
85936;BME280;76481;54.346;10.210;2024-03-08T10:49:25;102000.41;;;9.70;55.19
85936;BME280;76481;54.346;10.210;2024-03-08T10:51:51;101989.63;;;10.02;54.08
85936;BME280;76481;54.346;10.210;2024-03-08T10:54:18;101994.91;;;9.96;54.33
85936;BME280;76481;54.346;10.210;2024-03-08T10:56:48;101994.84;;;10.03;53.21
85936;BME280;76481;54.346;10.210;2024-03-08T10:59:14;101992.47;;;9.58;55.45
85936;BME280;76481;54.346;10.210;2024-03-08T11:01:40;101985.50;;;10.13;52.78
85936;BME280;76481;54.346;10.210;2024-03-08T11:04:06;101979.84;;;10.13;54.54
85936;BME280;76481;54.346;10.210;2024-03-08T11:09:08;101969.56;;;9.96;53.26
85936;BME280;76481;54.346;10.210;2024-03-08T11:11:39;101970.06;;;10.25;54.71
85936;BME280;76481;54.346;10.210;2024-03-08T11:19:55;101961.19;;;10.56;51.47
85936;BME280;76481;54.346;10.210;2024-03-08T11:22:32;101957.16;;;11.11;51.84
85936;BME280;76481;54.346;10.210;2024-03-08T11:25:01;101947.63;;;11.28;52.43
85936;BME280;76481;54.346;10.210;2024-03-08T11:27:30;101946.97;;;11.17;51.30
85936;BME280;76481;54.346;10.210;2024-03-08T11:30:21;101938.34;;;10.78;52.04
85936;BME280;76481;54.346;10.210;2024-03-08T11:32:50;101932.19;;;10.83;52.58
85936;BME280;76481;54.346;10.210;2024-03-08T11:35:21;101924.66;;;11.03;53.41
85936;BME280;76481;54.346;10.210;2024-03-08T11:37:48;101926.47;;;10.90;54.37
85936;BME280;76481;54.346;10.210;2024-03-08T11:40:15;101931.34;;;10.86;53.19
85936;BME280;76481;54.346;10.210;2024-03-08T11:42:48;101923.88;;;10.99;52.91
85936;BME280;76481;54.346;10.210;2024-03-08T11:45:14;101920.06;;;10.86;53.48
85936;BME280;76481;54.346;10.210;2024-03-08T11:47:42;101907.66;;;10.80;54.38
85936;BME280;76481;54.346;10.210;2024-03-08T11:50:10;101901.44;;;10.92;53.77
85936;BME280;76481;54.346;10.210;2024-03-08T11:52:36;101907.81;;;10.96;51.63
85936;BME280;76481;54.346;10.210;2024-03-08T11:55:03;101894.19;;;10.91;52.14
85936;BME280;76481;54.346;10.210;2024-03-08T11:57:30;101897.75;;;10.95;52.35
85936;BME280;76481;54.346;10.210;2024-03-08T11:59:58;101888.97;;;10.89;52.91
85936;BME280;76481;54.346;10.210;2024-03-08T12:02:24;101891.34;;;10.68;53.49
85936;BME280;76481;54.346;10.210;2024-03-08T12:04:57;101887.06;;;10.83;53.32
85936;BME280;76481;54.346;10.210;2024-03-08T12:07:23;101893.56;;;10.80;54.19
85936;BME280;76481;54.346;10.210;2024-03-08T12:10:21;101889.22;;;10.48;53.28
85936;BME280;76481;54.346;10.210;2024-03-08T12:12:54;101886.91;;;10.67;53.95
85936;BME280;76481;54.346;10.210;2024-03-08T12:15:21;101876.63;;;10.80;53.17
85936;BME280;76481;54.346;10.210;2024-03-08T12:17:50;101872.19;;;10.55;53.05
85936;BME280;76481;54.346;10.210;2024-03-08T12:22:50;101868.50;;;10.32;53.25
85936;BME280;76481;54.346;10.210;2024-03-08T12:25:22;101861.72;;;10.26;52.84
85936;BME280;76481;54.346;10.210;2024-03-08T12:27:48;101861.97;;;10.05;54.10
85936;BME280;76481;54.346;10.210;2024-03-08T12:32:59;101859.66;;;10.00;53.90
85936;BME280;76481;54.346;10.210;2024-03-08T12:35:30;101855.28;;;9.95;54.53
85936;BME280;76481;54.346;10.210;2024-03-08T12:37:58;101858.00;;;10.32;55.12
85936;BME280;76481;54.346;10.210;2024-03-08T12:40:28;101843.44;;;10.37;54.08
85936;BME280;76481;54.346;10.210;2024-03-08T12:42:58;101827.88;;;9.96;54.62
85936;BME280;76481;54.346;10.210;2024-03-08T12:45:24;101834.13;;;10.14;55.13
85936;BME280;76481;54.346;10.210;2024-03-08T12:47:51;101827.00;;;10.32;55.62
85936;BME280;76481;54.346;10.210;2024-03-08T12:50:17;101825.91;;;10.26;55.57
85936;BME280;76481;54.346;10.210;2024-03-08T12:52:43;101823.34;;;10.05;55.46
85936;BME280;76481;54.346;10.210;2024-03-08T12:55:08;101822.91;;;9.77;56.80
85936;BME280;76481;54.346;10.210;2024-03-08T12:57:35;101822.44;;;9.82;56.20
85936;BME280;76481;54.346;10.210;2024-03-08T13:00:02;101810.13;;;9.69;56.10
85936;BME280;76481;54.346;10.210;2024-03-08T13:02:28;101814.31;;;9.87;55.65